Flight Track Log - Related Links

Times and Time Zones

All times are in EDT time to prevent confusion due to time zone crossing. See the UAL444 flight status page for this flight to view local times or setup timezone preferences in your user account.

Time Position Orientation Groundspeed Altitude Reporting Facility
EDT Latitude Longitude Course Direction KTS MPH feet Rate Location/Type
Sun 10:24:39 PM 41.4194 -81.8375 359° North 160 184 1,700  Level Cleveland Center
Sun 10:25:15 PM 41.4528 -81.8381 359° North 193 222 2,400 1,558 Climbing Cleveland Center
Sun 10:25:56 PM 41.4986 -81.8500 349° North 252 290 3,700 2,079 Climbing Cleveland Center
Sun 10:26:56 PM 41.5206 -81.9228 292° West 292 336 5,900 2,550 Climbing Cleveland Center
Sun 10:27:56 PM 41.4778 -82.0106 237° Southwest 316 364 8,800 2,250 Climbing Cleveland Center
Sun 10:28:56 PM 41.4308 -82.1008 235° Southwest 310 357 10,400 1,650 Climbing Cleveland Center
Sun 10:29:56 PM 41.3772 -82.2075 236° Southwest 325 374 12,100 1,800 Climbing Cleveland Center
Sun 10:30:56 PM 41.3214 -82.3167 236° Southwest 358 412 14,000 1,950 Climbing Cleveland Center
Sun 10:31:56 PM 41.2633 -82.4283 235° Southwest 371 427 16,000 1,650 Climbing Cleveland Center
Sun 10:32:56 PM 41.2094 -82.5317 235° Southwest 377 434 17,300 1,500 Climbing Cleveland Center
Sun 10:33:56 PM 41.1492 -82.6514 236° Southwest 383 441 19,000 1,600 Climbing Cleveland Center
Sun 10:34:56 PM 41.0989 -82.7764 242° Southwest 389 448 20,500 1,400 Climbing Cleveland Center
Sun 10:35:56 PM 41.0772 -82.9217 259° West 390 449 21,800 1,350 Climbing Cleveland Center
Sun 10:36:56 PM 41.0575 -83.0614 259° West 395 455 23,200 1,300 Climbing Cleveland Center
Sun 10:37:56 PM 41.0394 -83.2122 261° West 407 468 24,400 1,084 Climbing Cleveland Center
Sun 10:39:31 PM 41.0008 -83.4556 258° West 407 468 26,000 1,038 Climbing Indianapolis Center
Sun 10:40:32 PM 40.9783 -83.6064 259° West 420 483 27,100 934 Climbing Indianapolis Center
Sun 10:41:33 PM 40.9508 -83.7556 256° West 418 481 27,900 934 Climbing Indianapolis Center
Sun 10:42:34 PM 40.8961 -83.8933 242° Southwest 423 487 29,000 984 Climbing Indianapolis Center
Sun 10:43:35 PM 40.8394 -84.0261 241° Southwest 416 479 29,900 836 Climbing Indianapolis Center
Sun 10:44:36 PM 40.7819 -84.1581 240° Southwest 415 478 30,700 787 Climbing Indianapolis Center
Sun 10:45:37 PM 40.7242 -84.2914 240° Southwest 416 479 31,500 787 Climbing Indianapolis Center
Sun 10:46:38 PM 40.6686 -84.4219 241° Southwest 409 471 32,300 873 Climbing Indianapolis Center
Sun 10:47:27 PM 40.6261 -84.5333 243° Southwest 407 468 33,100 818 Climbing Indianapolis Center
Sun 10:48:28 PM 40.5911 -84.6733 252° West 401 461 33,800 443 Climbing Indianapolis Center
Sun 10:49:29 PM 40.5539 -84.8108 250° West 398 458 34,000 98 Climbing Indianapolis Center
Sun 10:50:30 PM 40.5156 -84.9572 251° West 397 457 34,000  Level Indianapolis Center
Sun 10:51:31 PM 40.4775 -85.0947 250° West 400 460 34,000  Level Indianapolis Center
Sun 10:52:32 PM 40.4403 -85.2314 250° West 399 459 34,000  Level Indianapolis Center
Sun 10:53:33 PM 40.4033 -85.3681 250° West 400 460 34,000  Level Indianapolis Center
Sun 10:54:04 PM 40.3869 -85.4203 248° West 400 460 34,000  Level Chicago Center
Sun 10:55:06 PM 40.3672 -85.5922 261° West 408 470 34,000  Level Chicago Center
Sun 10:56:07 PM 40.3769 -85.7403 275° West 412 474 34,000  Level Chicago Center
Sun 10:57:08 PM 40.3867 -85.8869 275° West 410 472 34,000  Level Chicago Center
Sun 10:58:09 PM 40.3961 -86.0336 275° West 408 470 34,000  Level Chicago Center
Sun 10:59:10 PM 40.4050 -86.1778 275° West 403 464 34,000  Level Chicago Center
Sun 11:00:12 PM 40.4147 -86.3247 275° West 407 468 34,000  Level Chicago Center
Sun 11:01:13 PM 40.4236 -86.4719 275° West 411 473 34,000  Level Chicago Center
Sun 11:02:14 PM 40.4333 -86.6481 274° West 409 471 34,000  Level Chicago Center
Sun 11:03:15 PM 40.4419 -86.7981 274° West 414 476 34,000  Level Chicago Center
Sun 11:04:16 PM 40.4503 -86.9486 274° West 418 481 34,000  Level Chicago Center
Sun 11:05:17 PM 40.4586 -87.0981 274° West 417 480 34,000  Level Chicago Center
Sun 11:06:19 PM 40.4669 -87.2547 274° West 418 481 34,000  Level Chicago Center
Sun 11:07:20 PM 40.4736 -87.4072 273° West 420 483 34,000  Level Chicago Center
Sun 11:08:21 PM 40.4828 -87.5575 275° West 415 478 34,000  Level Chicago Center
Sun 11:09:22 PM 40.4889 -87.7108 273° West 420 483 34,000  Level Chicago Center
Sun 11:10:23 PM 40.4975 -87.8617 274° West 420 483 34,000  Level Chicago Center
Sun 11:11:24 PM 40.5047 -88.0142 274° West 419 482 34,000  Level Chicago Center
Sun 11:12:25 PM 40.5131 -88.1947 274° West 415 478 34,000  Level Chicago Center
Sun 11:13:27 PM 40.5192 -88.3397 273° West 405 466 34,000  Level Chicago Center
Sun 11:14:28 PM 40.5267 -88.4886 274° West 408 470 34,000  Level Chicago Center
Sun 11:15:29 PM 40.5336 -88.6378 274° West 411 473 34,000  Level Chicago Center
Sun 11:16:30 PM 40.5392 -88.7869 273° West 410 472 34,000  Level Chicago Center
Sun 11:17:31 PM 40.5453 -88.9375 273° West 411 473 34,000  Level Chicago Center
Sun 11:18:32 PM 40.5500 -89.0878 272° West 413 475 34,000  Level Chicago Center
Sun 11:19:33 PM 40.5547 -89.2381 272° West 411 473 34,000  Level Chicago Center
Sun 11:20:34 PM 40.5594 -89.3908 272° West 414 476 34,000  Level Chicago Center
Sun 11:21:36 PM 40.5644 -89.5444 273° West 418 481 34,000  Level Chicago Center
Sun 11:22:37 PM 40.5689 -89.7275 272° West 429 494 34,000  Level Chicago Center
Sun 11:23:38 PM 40.5783 -89.8892 274° West 438 504 34,000  Level Chicago Center
Sun 11:24:39 PM 40.5811 -90.0508 271° West 444 511 34,000  Level Chicago Center
Sun 11:25:40 PM 40.5867 -90.2122 273° West 444 511 34,000  Level Chicago Center
Sun 11:26:29 PM 40.5897 -90.3314 272° West 444 511 34,000  Level Chicago Center
Sun 11:27:30 PM 40.5936 -90.4931 272° West 443 510 34,000  Level Chicago Center
Sun 11:28:31 PM 40.5964 -90.6528 271° West 440 506 34,000  Level Chicago Center
Sun 11:29:32 PM 40.6006 -90.8136 272° West 440 506 34,000  Level Chicago Center
Sun 11:30:33 PM 40.6042 -91.0069 271° West 440 506 34,000  Level Chicago Center
Sun 11:31:34 PM 40.6078 -91.1689 272° West 442 509 34,000  Level Chicago Center
Sun 11:32:32 PM 40.6092 -91.2958 271° West 444 511 34,000  Level Kansas City Center
Sun 11:33:33 PM 40.6128 -91.4878 271° West 443 510 34,000  Level Kansas City Center
Sun 11:34:34 PM 40.6156 -91.6467 271° West 440 506 34,000  Level Kansas City Center
Sun 11:35:35 PM 40.6181 -91.8056 271° West 439 505 34,000  Level Kansas City Center
Sun 11:36:36 PM 40.6194 -91.9642 271° West 439 505 34,000  Level Kansas City Center
Sun 11:37:37 PM 40.6225 -92.1231 272° West 440 506 34,000  Level Kansas City Center
Sun 11:38:38 PM 40.6231 -92.2808 270° West 439 505 34,000  Level Kansas City Center
Sun 11:39:39 PM 40.6256 -92.4386 271° West 439 505 34,000  Level Kansas City Center
Sun 11:40:43 PM 40.6272 -92.6281 271° West 441 507 34,000  Level Minneapolis Center
Sun 11:41:44 PM 40.6275 -92.7872 270° West 443 510 34,000  Level Minneapolis Center
Sun 11:42:45 PM 40.6286 -92.9458 271° West 442 509 34,000  Level Minneapolis Center
Sun 11:43:46 PM 40.6278 -93.1053 270° West 442 509 34,000  Level Minneapolis Center
Sun 11:44:47 PM 40.6297 -93.2600 271° West 432 497 34,000  Level Minneapolis Center
Sun 11:45:48 PM 40.6278 -93.4514 269° West 438 504 34,000  Level Minneapolis Center
Sun 11:46:49 PM 40.6272 -93.6119 270° West 441 507 34,000  Level Minneapolis Center
Sun 11:47:50 PM 40.6269 -93.7728 270° West 443 510 34,000  Level Minneapolis Center
Sun 11:48:51 PM 40.6258 -93.9328 270° West 443 510 34,000  Level Minneapolis Center
Sun 11:49:52 PM 40.6239 -94.0933 269° West 443 510 34,000  Level Minneapolis Center
Sun 11:50:53 PM 40.6233 -94.2503 270° West 439 505 34,000  Level Minneapolis Center
Sun 11:51:54 PM 40.6219 -94.4114 269° West 443 510 34,000  Level Minneapolis Center
Sun 11:52:55 PM 40.6203 -94.5783 269° West 442 509 34,000  Level Minneapolis Center
Sun 11:53:55 PM 40.6189 -94.7081 269° West 443 510 34,000  Level Minneapolis Center
Sun 11:54:57 PM 40.6150 -94.9025 269° West 443 510 34,000  Level Minneapolis Center
Sun 11:55:58 PM 40.6147 -95.0656 270° West 445 512 34,000  Level Minneapolis Center
Sun 11:56:58 PM 40.6114 -95.2608 269° West 445 512 34,000  Level Minneapolis Center
Sun 11:57:59 PM 40.6094 -95.4239 269° West 444 511 34,000  Level Minneapolis Center
Sun 11:59:00 PM 40.6064 -95.5861 269° West 443 510 34,000  Level Minneapolis Center
Mon 12:00:01 AM 40.6031 -95.7475 268° West 441 507 34,000  Level Minneapolis Center
Mon 12:01:02 AM 40.5997 -95.9117 269° West 445 512 34,000  Level Minneapolis Center
Mon 12:02:03 AM 40.5961 -96.0758 268° West 447 514 34,000  Level Minneapolis Center
Mon 12:03:04 AM 40.5928 -96.2392 269° West 445 512 34,000  Level Minneapolis Center
Mon 12:04:05 AM 40.5881 -96.4019 268° West 445 512 34,000  Level Minneapolis Center
Mon 12:05:06 AM 40.5844 -96.5650 268° West 445 512 34,000  Level Minneapolis Center
Mon 12:06:06 AM 40.5789 -96.7272 267° West 443 510 34,000  Level Minneapolis Center
Mon 12:07:07 AM 40.5750 -96.8869 268° West 439 505 34,000  Level Minneapolis Center
Mon 12:08:08 AM 40.5700 -97.0478 268° West 438 504 34,000  Level Minneapolis Center
Mon 12:09:09 AM 40.5650 -97.2081 268° West 439 505 34,000  Level Minneapolis Center
Mon 12:10:10 AM 40.5583 -97.3594 267° West 435 501 34,000  Level Minneapolis Center
Mon 12:11:11 AM 40.5544 -97.5169 268° West 432 497 34,000  Level Minneapolis Center
Mon 12:12:11 AM 40.5478 -97.6733 267° West 429 494 34,000  Level Minneapolis Center
Mon 12:13:24 AM 40.5408 -97.8631 267° West 431 496 34,000 45 Level Minneapolis Center
Mon 12:14:25 AM 40.5333 -98.0544 267° West 435 501 34,100 45 Climbing Minneapolis Center
Mon 12:15:38 AM 40.5269 -98.2150 267° West 438 504 34,100 -45 Level Minneapolis Center
Mon 12:16:39 AM 40.5181 -98.4056 267° West 435 501 34,000 -49 Descending Minneapolis Center
Mon 12:17:40 AM 40.5122 -98.5642 267° West 433 498 34,000  Level Minneapolis Center
Mon 12:18:40 AM 40.5044 -98.7233 266° West 435 501 34,000  Level Minneapolis Center
Mon 12:19:41 AM 40.4967 -98.8822 266° West 434 499 34,000  Level Minneapolis Center
Mon 12:20:42 AM 40.4900 -99.0400 267° West 433 498 34,000  Level Minneapolis Center
Mon 12:21:43 AM 40.4825 -99.1944 266° West 429 494 34,000  Level Minneapolis Center
Mon 12:22:43 AM 40.4750 -99.3497 266° West 426 490 34,000  Level Minneapolis Center
Mon 12:23:37 AM 40.4683 -99.4736 266° West 427 491 34,000  Level Denver Center
Mon 12:24:38 AM 40.4594 -99.6317 266° West 433 498 34,000  Level Denver Center
Mon 12:25:40 AM 40.4508 -99.7886 266° West 431 496 34,000  Level Denver Center
Mon 12:26:41 AM 40.4411 -99.9511 266° West 433 498 34,000  Level Denver Center
Mon 12:27:42 AM 40.4311 -100.1294 266° West 437 503 34,000 49 Level Denver Center
Mon 12:28:43 AM 40.4222 -100.2822 266° West 438 504 34,100  Climbing Denver Center
Mon 12:29:44 AM 40.4114 -100.4603 265° West 437 503 34,000 -49 Descending Denver Center
Mon 12:30:45 AM 40.4017 -100.6122 265° West 434 499 34,000 98 Level Denver Center
Mon 12:31:46 AM 40.3917 -100.7636 265° West 433 498 34,200 541 Climbing Denver Center
Mon 12:32:47 AM 40.3803 -100.9397 265° West 433 498 35,100 878 Climbing Denver Center
Mon 12:33:49 AM 40.3703 -101.0861 265° West 422 486 36,000 400 Climbing Denver Center
Mon 12:35:02 AM 40.3606 -101.2328 265° West 420 483 36,000  Level Denver Center
Mon 12:36:03 AM 40.3481 -101.4267 265° West 417 480 36,000  Level Denver Center
Mon 12:37:04 AM 40.3375 -101.5733 265° West 420 483 36,000  Level Denver Center
Mon 12:38:05 AM 40.3250 -101.7428 265° West 419 482 36,000  Level Denver Center
Mon 12:39:06 AM 40.3156 -101.8872 265° West 416 479 36,000  Level Denver Center
Mon 12:40:07 AM 40.3036 -102.0289 264° West 410 472 36,000  Level Denver Center
Mon 12:41:08 AM 40.2917 -102.1933 265° West 408 470 36,000  Level Denver Center
Mon 12:42:09 AM 40.2797 -102.3344 264° West 407 468 36,000  Level Denver Center
Mon 12:43:10 AM 40.2683 -102.4747 264° West 406 467 36,000  Level Denver Center
Mon 12:44:11 AM 40.2567 -102.6392 265° West 406 467 36,000  Level Denver Center
Mon 12:45:12 AM 40.2458 -102.7764 264° West 408 470 36,000  Level Denver Center
Mon 12:46:13 AM 40.2336 -102.9236 264° West 408 470 36,000  Level Denver Center
Mon 12:47:14 AM 40.2214 -103.0717 264° West 411 473 36,000  Level Denver Center
Mon 12:48:15 AM 40.2081 -103.2192 263° West 410 472 36,000  Level Denver Center
Mon 12:49:16 AM 40.1953 -103.3658 264° West 408 470 36,000  Level Denver Center
Mon 12:50:17 AM 40.1814 -103.5411 264° West 407 468 36,000  Level Denver Center
Mon 12:51:18 AM 40.1686 -103.6853 263° West 402 463 36,000  Level Denver Center
Mon 12:52:31 AM 40.1550 -103.8319 263° West 408 470 36,000  Level Denver Center
Mon 12:53:32 AM 40.1392 -104.0042 263° West 403 464 36,000  Level Denver Center
Mon 12:54:33 AM 40.1261 -104.1486 263° West 401 461 36,000  Level Denver Center
Mon 12:55:34 AM 40.1125 -104.2933 263° West 404 465 36,000  Level Denver Center
Mon 12:56:35 AM 40.0986 -104.4367 263° West 400 460 36,000  Level Denver Center
Mon 12:57:36 AM 40.0856 -104.5822 263° West 406 467 36,000  Level Denver Center
Mon 12:58:37 AM 40.0717 -104.7272 263° West 406 467 36,000  Level Denver Center
Mon 12:59:38 AM 40.0569 -104.8725 263° West 408 470 36,000  Level Denver Center
Mon 01:00:39 AM 40.0386 -105.0417 262° West 396 456 36,000  Level Denver Center
Mon 01:01:40 AM 40.0242 -105.1878 263° West 406 467 36,000  Level Denver Center
Mon 01:02:41 AM 40.0094 -105.3297 262° West 399 459 36,000  Level Denver Center
Mon 01:03:42 AM 39.9939 -105.4753 262° West 404 465 36,000  Level Denver Center
Mon 01:04:43 AM 39.9789 -105.6175 262° West 403 464 36,000  Level Denver Center
Mon 01:05:43 AM 39.9625 -105.7636 262° West 409 471 36,000  Level Denver Center
Mon 01:06:44 AM 39.9475 -105.9064 262° West 398 458 36,000  Level Denver Center
Mon 01:07:45 AM 39.9314 -106.0531 262° West 408 470 36,000  Level Denver Center
Mon 01:08:46 AM 39.9147 -106.1986 262° West 408 470 36,000  Level Denver Center
Mon 01:09:47 AM 39.8981 -106.3436 262° West 407 468 36,000  Level Denver Center
Mon 01:10:47 AM 39.8789 -106.5108 262° West 404 465 36,000  Level Denver Center
Mon 01:11:48 AM 39.8653 -106.6450 263° West 404 465 36,000  Level Denver Center
Mon 01:12:49 AM 39.8486 -106.7906 262° West 408 470 36,000  Level Denver Center
Mon 01:13:50 AM 39.8314 -106.9364 261° West 411 473 36,000  Level Denver Center
Mon 01:14:50 AM 39.8131 -107.0808 261° West 408 470 36,000  Level Denver Center
Mon 01:15:51 AM 39.7953 -107.2322 261° West 407 468 36,000  Level Denver Center
Mon 01:16:52 AM 39.7747 -107.3961 261° West 409 471 36,000  Level Denver Center
Mon 01:17:53 AM 39.7567 -107.5367 261° West 413 475 36,000  Level Denver Center
Mon 01:18:53 AM 39.7397 -107.6781 261° West 413 475 36,000  Level Denver Center
Mon 01:19:54 AM 39.7186 -107.8408 260° West 411 473 36,000  Level Denver Center
Mon 01:20:55 AM 39.7003 -107.9814 260° West 412 474 36,000  Level Denver Center
Mon 01:22:19 AM 39.6806 -108.1439 261° West 407 468 36,000  Level Denver Center
Mon 01:23:20 AM 39.6558 -108.3275 260° West 404 465 36,000  Level Denver Center
Mon 01:24:21 AM 39.6381 -108.4672 261° West 405 466 36,000  Level Denver Center
Mon 01:25:21 AM 39.6161 -108.6319 260° West 421 484 36,000  Level Denver Center
Mon 01:26:22 AM 39.5914 -108.7842 258° West 432 497 36,000  Level Denver Center
Mon 01:27:23 AM 39.5750 -108.9278 262° West 415 478 36,000  Level Denver Center
Mon 01:28:23 AM 39.5561 -109.0675 260° West 411 473 36,000  Level Denver Center
Mon 01:29:24 AM 39.5336 -109.2289 260° West 407 468 36,000  Level Denver Center
Mon 01:30:25 AM 39.5142 -109.3694 260° West 415 478 36,000  Level Denver Center
Mon 01:31:25 AM 39.4944 -109.5086 260° West 412 474 36,000  Level Denver Center
Mon 01:32:26 AM 39.4750 -109.6497 260° West 415 478 36,000  Level Denver Center
Mon 01:33:26 AM 39.4508 -109.8125 259° West 412 474 36,000  Level Denver Center
Mon 01:34:27 AM 39.4317 -109.9536 260° West 415 478 36,000  Level Denver Center
Mon 01:35:28 AM 39.4103 -110.0936 259° West 416 479 36,000  Level Denver Center
Mon 01:36:28 AM 39.3856 -110.2572 259° West 414 476 36,000  Level Denver Center
Mon 01:37:29 AM 39.3647 -110.3981 259° West 416 479 36,000  Level Denver Center
Mon 01:38:29 AM 39.3442 -110.5389 259° West 417 480 36,000  Level Denver Center
Mon 01:39:30 AM 39.3222 -110.7047 260° West 420 483 36,000  Level Denver Center
Mon 01:40:59 AM 39.2872 -110.9169 258° West 422 486 36,000  Level Salt Lake Center
Mon 01:41:59 AM 39.2650 -111.0583 259° West 422 486 36,000  Level Salt Lake Center
Mon 01:43:00 AM 39.2383 -111.2247 258° West 423 487 36,000  Level Salt Lake Center
Mon 01:44:01 AM 39.2150 -111.3744 259° West 423 487 36,000  Level Salt Lake Center
Mon 01:45:02 AM 39.1911 -111.5256 259° West 429 494 36,000  Level Salt Lake Center
Mon 01:46:03 AM 39.1664 -111.6761 258° West 430 495 36,000  Level Salt Lake Center
Mon 01:47:04 AM 39.1428 -111.8256 259° West 428 493 36,000  Level Salt Lake Center
Mon 01:48:05 AM 39.1181 -111.9767 258° West 431 496 36,000  Level Salt Lake Center
Mon 01:49:06 AM 39.0933 -112.1269 258° West 431 496 36,000  Level Salt Lake Center
Mon 01:50:07 AM 39.0678 -112.2747 257° West 426 490 36,000  Level Salt Lake Center
Mon 01:51:07 AM 39.0428 -112.4242 258° West 427 491 36,000  Level Salt Lake Center
Mon 01:52:08 AM 39.0178 -112.5717 258° West 425 489 36,000  Level Salt Lake Center
Mon 01:53:09 AM 38.9928 -112.7200 258° West 426 490 36,000  Level Salt Lake Center
Mon 01:54:10 AM 38.9667 -112.8661 257° West 423 487 36,000  Level Salt Lake Center
Mon 01:55:11 AM 38.9358 -113.0433 257° West 425 489 36,000  Level Salt Lake Center
Mon 01:56:12 AM 38.9094 -113.1908 257° West 425 489 36,000  Level Salt Lake Center
Mon 01:57:12 AM 38.8839 -113.3392 258° West 425 489 36,000  Level Salt Lake Center
Mon 01:58:13 AM 38.8578 -113.4872 257° West 427 491 36,000  Level Salt Lake Center
Mon 01:59:14 AM 38.8306 -113.6372 257° West 432 497 36,000  Level Salt Lake Center
Mon 02:00:15 AM 38.8042 -113.7856 257° West 431 496 36,000  Level Salt Lake Center
Mon 02:01:16 AM 38.7767 -113.9347 257° West 432 497 36,000  Level Salt Lake Center
Mon 02:02:16 AM 38.7492 -114.0836 257° West 432 497 36,000  Level Salt Lake Center
Mon 02:03:17 AM 38.7211 -114.2333 257° West 433 498 36,000  Level Salt Lake Center
Mon 02:04:18 AM 38.6944 -114.3831 257° West 434 499 36,000  Level Salt Lake Center
Mon 02:05:19 AM 38.6656 -114.5336 256° West 436 502 36,000  Level Salt Lake Center
Mon 02:06:19 AM 38.6372 -114.6836 256° West 436 502 36,000  Level Salt Lake Center
Mon 02:07:20 AM 38.6078 -114.8344 256° West 438 504 36,000  Level Salt Lake Center
Mon 02:08:21 AM 38.5733 -115.0131 256° West 435 501 36,000  Level Salt Lake Center
Mon 02:09:22 AM 38.5444 -115.1639 256° West 438 504 36,000  Level Salt Lake Center
Mon 02:10:22 AM 38.5147 -115.3144 256° West 438 504 36,000  Level Salt Lake Center
Mon 02:11:23 AM 38.4867 -115.4542 256° West 440 506 36,000  Level Salt Lake Center
Mon 02:12:24 AM 38.4572 -115.6058 256° West 440 506 36,000  Level Salt Lake Center
Mon 02:13:24 AM 38.4264 -115.7578 256° West 443 510 36,000  Level Salt Lake Center
Mon 02:14:26 AM 38.3956 -115.9094 256° West 442 509 36,000  Level Salt Lake Center
Mon 02:15:26 AM 38.3647 -116.0611 256° West 443 510 36,000  Level Salt Lake Center
Mon 02:16:26 AM 38.3342 -116.2131 256° West 443 510 36,000  Level Salt Lake Center
Mon 02:17:27 AM 38.3025 -116.3644 255° West 442 509 36,000  Level Salt Lake Center
Mon 02:18:28 AM 38.2733 -116.5175 256° West 445 512 36,000  Level Salt Lake Center
Mon 02:19:08 AM 38.2589 -116.6425 262° West 446 513 36,000  Level Oakland Center
Mon 02:20:08 AM 38.2392 -116.7961 261° West 444 511 36,000  Level Oakland Center
Mon 02:21:09 AM 38.2194 -116.9506 261° West 444 511 36,000  Level Oakland Center
Mon 02:22:09 AM 38.2011 -117.1058 262° West 436 502 36,000  Level Oakland Center
Mon 02:23:10 AM 38.1778 -117.2639 259° West 457 526 36,000  Level Oakland Center
Mon 02:24:10 AM 38.1572 -117.4203 261° West 452 520 36,000  Level Oakland Center
Mon 02:25:11 AM 38.1386 -117.5581 260° West 446 513 36,000  Level Oakland Center
Mon 02:26:11 AM 38.1181 -117.7122 260° West 446 513 36,000  Level Oakland Center
Mon 02:27:12 AM 38.0922 -117.8978 260° West 446 513 36,000  Level Oakland Center
Mon 02:28:12 AM 38.0703 -118.0511 260° West 445 512 36,000  Level Oakland Center
Mon 02:29:13 AM 38.0492 -118.2067 260° West 446 513 36,000  Level Oakland Center
Mon 02:30:14 AM 38.0264 -118.3608 259° West 446 513 36,000  Level Oakland Center
Mon 02:31:14 AM 38.0044 -118.5169 260° West 449 517 36,000  Level Oakland Center
Mon 02:32:15 AM 37.9825 -118.6700 260° West 443 510 36,000  Level Oakland Center
Mon 02:33:15 AM 37.9611 -118.8242 260° West 444 511 36,000  Level Oakland Center
Mon 02:34:16 AM 37.9381 -118.9789 259° West 447 514 36,000  Level Oakland Center
Mon 02:35:16 AM 37.9144 -119.1344 259° West 450 518 36,000  Level Oakland Center
Mon 02:36:17 AM 37.8939 -119.2747 260° West 452 520 36,000  Level Oakland Center
Mon 02:37:17 AM 37.8706 -119.4297 259° West 449 517 36,000  Level Oakland Center
Mon 02:38:17 AM 37.8467 -119.5858 259° West 451 519 36,000  Level Oakland Center
Mon 02:39:18 AM 37.8233 -119.7433 259° West 455 524 36,000  Level Oakland Center
Mon 02:40:18 AM 37.7989 -119.9003 259° West 455 524 36,000 -298 Level Oakland Center
Mon 02:41:19 AM 37.7742 -120.0561 259° West 453 521 35,400 -1,636 Descending Oakland Center
Mon 02:42:19 AM 37.7486 -120.2119 258° West 452 520 32,700 -3,074 Descending Oakland Center
Mon 02:43:20 AM 37.7228 -120.3739 259° West 467 537 29,200 -2,926 Descending Oakland Center
Mon 02:44:20 AM 37.6961 -120.5336 258° West 466 536 26,800 -2,628 Descending Oakland Center
Mon 02:45:21 AM 37.6678 -120.7164 259° West 447 514 23,900 -2,975 Descending Oakland Center
Mon 02:46:21 AM 37.6417 -120.8664 258° West 439 505 20,800 -2,628 Descending Oakland Center
Mon 02:47:22 AM 37.6203 -121.0156 260° West 433 498 18,600 -2,331 Descending Oakland Center
Mon 02:48:22 AM 37.6044 -121.1614 262° West 423 487 16,100 -2,100 Descending Oakland Center
Mon 02:49:22 AM 37.5900 -121.2836 262° West 410 472 14,400 -1,983 Descending Oakland Center
Mon 02:50:23 AM 37.5744 -121.4153 262° West 387 445 12,100 -1,686 Descending Oakland Center
Mon 02:51:23 AM 37.5572 -121.5444 260° West 376 433 11,000 -595 Descending Oakland Center
Mon 02:52:24 AM 37.5328 -121.6511 254° West 325 374 10,900 -595 Descending Oakland Center
Mon 02:53:24 AM 37.5083 -121.7567 254° West 316 364 9,800 -1,200 Descending Oakland Center
Mon 02:54:24 AM 37.4847 -121.8628 254° West 314 361 8,500 -893 Descending Oakland Center
Mon 02:55:25 AM 37.4622 -121.9589 254° West 294 338 8,000 -1,388 Descending Oakland Center
Mon 02:56:25 AM 37.4781 -122.0469 283° West 286 329 5,700 -2,331 Descending Oakland Center
Mon 02:57:26 AM 37.5153 -122.1297 300° West 273 314 3,300 -1,736 Descending Oakland Center
Mon 02:58:26 AM 37.5456 -122.2069 296° West 260 299 2,200 -843 Descending Oakland Center
Mon 02:59:27 AM 37.5725 -122.2703 298° West 230 265 1,600 -694 Descending Oakland Center
Mon 03:00:27 AM 37.5931 -122.3194 298° West 188 216 800 -650 Descending Oakland Center
Mon 03:01:27 AM 37.6128 -122.3683 297° West 169 194 300 -500 Descending Oakland Center

Login

Don't have an account? Register now (free) for customized features, flight alerts, and more!